sensor_id;sensor_type;location;lat;lon;timestamp;P1;durP1;ratioP1;P2;durP2;ratioP2
17592;SDS011;8915;51.760;14.300;2023-03-13T00:01:09;3.13;;;1.20;;
17592;SDS011;8915;51.760;14.300;2023-03-13T00:03:35;1.60;;;1.20;;
17592;SDS011;8915;51.760;14.300;2023-03-13T00:06:02;1.80;;;1.37;;
17592;SDS011;8915;51.760;14.300;2023-03-13T00:08:29;3.00;;;1.30;;
17592;SDS011;8915;51.760;14.300;2023-03-13T00:10:55;3.60;;;1.70;;
17592;SDS011;8915;51.760;14.300;2023-03-13T00:13:22;4.20;;;1.60;;
17592;SDS011;8915;51.760;14.300;2023-03-13T00:15:48;2.37;;;1.50;;
17592;SDS011;8915;51.760;14.300;2023-03-13T00:18:14;5.27;;;1.50;;
17592;SDS011;8915;51.760;14.300;2023-03-13T00:20:40;3.27;;;1.37;;
17592;SDS011;8915;51.760;14.300;2023-03-13T00:23:07;3.50;;;1.63;;
17592;SDS011;8915;51.760;14.300;2023-03-13T00:25:34;3.63;;;1.40;;
17592;SDS011;8915;51.760;14.300;2023-03-13T00:28:01;2.77;;;1.53;;
17592;SDS011;8915;51.760;14.300;2023-03-13T00:30:27;5.37;;;1.50;;
17592;SDS011;8915;51.760;14.300;2023-03-13T00:32:54;4.57;;;1.33;;
17592;SDS011;8915;51.760;14.300;2023-03-13T00:35:20;6.30;;;1.53;;
17592;SDS011;8915;51.760;14.300;2023-03-13T00:37:46;1.83;;;1.40;;
17592;SDS011;8915;51.760;14.300;2023-03-13T00:40:13;1.80;;;1.40;;
17592;SDS011;8915;51.760;14.300;2023-03-13T00:42:40;3.00;;;1.80;;
17592;SDS011;8915;51.760;14.300;2023-03-13T00:45:07;2.33;;;1.60;;
17592;SDS011;8915;51.760;14.300;2023-03-13T00:47:33;2.43;;;1.77;;
17592;SDS011;8915;51.760;14.300;2023-03-13T00:50:00;2.30;;;1.40;;
17592;SDS011;8915;51.760;14.300;2023-03-13T00:52:29;1.77;;;1.50;;
17592;SDS011;8915;51.760;14.300;2023-03-13T00:54:55;4.00;;;1.40;;
17592;SDS011;8915;51.760;14.300;2023-03-13T00:57:22;4.03;;;1.57;;
17592;SDS011;8915;51.760;14.300;2023-03-13T00:59:49;2.30;;;1.30;;
17592;SDS011;8915;51.760;14.300;2023-03-13T01:02:16;2.90;;;1.70;;
17592;SDS011;8915;51.760;14.300;2023-03-13T01:04:42;4.47;;;1.70;;
17592;SDS011;8915;51.760;14.300;2023-03-13T01:07:08;2.53;;;1.47;;
17592;SDS011;8915;51.760;14.300;2023-03-13T01:09:34;3.93;;;1.30;;
17592;SDS011;8915;51.760;14.300;2023-03-13T01:12:01;2.00;;;1.50;;
17592;SDS011;8915;51.760;14.300;2023-03-13T01:14:29;1.70;;;1.43;;
17592;SDS011;8915;51.760;14.300;2023-03-13T01:16:57;3.57;;;1.77;;
17592;SDS011;8915;51.760;14.300;2023-03-13T01:19:23;6.03;;;1.87;;
17592;SDS011;8915;51.760;14.300;2023-03-13T01:21:49;4.83;;;1.57;;
17592;SDS011;8915;51.760;14.300;2023-03-13T01:24:15;5.40;;;2.00;;
17592;SDS011;8915;51.760;14.300;2023-03-13T01:26:43;5.20;;;2.00;;
17592;SDS011;8915;51.760;14.300;2023-03-13T01:29:10;5.87;;;2.27;;
17592;SDS011;8915;51.760;14.300;2023-03-13T01:31:36;6.57;;;1.80;;
17592;SDS011;8915;51.760;14.300;2023-03-13T01:34:06;5.37;;;2.20;;
17592;SDS011;8915;51.760;14.300;2023-03-13T01:36:34;4.80;;;1.90;;
17592;SDS011;8915;51.760;14.300;2023-03-13T01:39:02;3.87;;;1.60;;
17592;SDS011;8915;51.760;14.300;2023-03-13T01:41:29;5.87;;;2.50;;
17592;SDS011;8915;51.760;14.300;2023-03-13T01:43:55;9.00;;;2.20;;
17592;SDS011;8915;51.760;14.300;2023-03-13T01:46:25;6.40;;;2.63;;
17592;SDS011;8915;51.760;14.300;2023-03-13T01:49:02;5.37;;;2.30;;
17592;SDS011;8915;51.760;14.300;2023-03-13T01:51:34;8.63;;;2.10;;
17592;SDS011;8915;51.760;14.300;2023-03-13T01:54:03;7.40;;;2.30;;
17592;SDS011;8915;51.760;14.300;2023-03-13T01:56:32;4.20;;;1.97;;
17592;SDS011;8915;51.760;14.300;2023-03-13T01:58:59;4.40;;;1.87;;
17592;SDS011;8915;51.760;14.300;2023-03-13T02:01:26;6.30;;;2.23;;
17592;SDS011;8915;51.760;14.300;2023-03-13T02:03:53;5.43;;;2.37;;
17592;SDS011;8915;51.760;14.300;2023-03-13T02:06:21;6.37;;;2.07;;
17592;SDS011;8915;51.760;14.300;2023-03-13T02:08:50;4.10;;;2.10;;
17592;SDS011;8915;51.760;14.300;2023-03-13T02:11:21;3.23;;;1.70;;
17592;SDS011;8915;51.760;14.300;2023-03-13T02:13:49;4.77;;;2.03;;
17592;SDS011;8915;51.760;14.300;2023-03-13T02:16:15;5.00;;;2.03;;
17592;SDS011;8915;51.760;14.300;2023-03-13T02:18:46;5.60;;;1.97;;
17592;SDS011;8915;51.760;14.300;2023-03-13T02:21:15;3.93;;;2.00;;
17592;SDS011;8915;51.760;14.300;2023-03-13T02:23:47;3.20;;;1.93;;
17592;SDS011;8915;51.760;14.300;2023-03-13T02:26:16;3.60;;;2.03;;
17592;SDS011;8915;51.760;14.300;2023-03-13T02:28:42;8.20;;;2.60;;
17592;SDS011;8915;51.760;14.300;2023-03-13T02:31:13;4.20;;;2.33;;
17592;SDS011;8915;51.760;14.300;2023-03-13T02:33:40;9.30;;;2.70;;
17592;SDS011;8915;51.760;14.300;2023-03-13T02:36:11;7.87;;;2.20;;
17592;SDS011;8915;51.760;14.300;2023-03-13T02:38:41;5.73;;;2.40;;
17592;SDS011;8915;51.760;14.300;2023-03-13T02:41:09;6.57;;;2.50;;
17592;SDS011;8915;51.760;14.300;2023-03-13T02:43:37;7.13;;;2.50;;
17592;SDS011;8915;51.760;14.300;2023-03-13T02:46:05;7.17;;;3.07;;
17592;SDS011;8915;51.760;14.300;2023-03-13T02:48:36;4.53;;;2.30;;
17592;SDS011;8915;51.760;14.300;2023-03-13T02:51:04;12.20;;;2.97;;
17592;SDS011;8915;51.760;14.300;2023-03-13T02:53:31;4.57;;;1.83;;
17592;SDS011;8915;51.760;14.300;2023-03-13T02:55:58;7.83;;;2.47;;
17592;SDS011;8915;51.760;14.300;2023-03-13T02:58:24;7.97;;;2.57;;
17592;SDS011;8915;51.760;14.300;2023-03-13T03:00:52;6.10;;;2.37;;
17592;SDS011;8915;51.760;14.300;2023-03-13T03:03:20;5.33;;;2.40;;
17592;SDS011;8915;51.760;14.300;2023-03-13T03:05:46;8.33;;;2.60;;
17592;SDS011;8915;51.760;14.300;2023-03-13T03:08:12;6.23;;;2.47;;
17592;SDS011;8915;51.760;14.300;2023-03-13T03:10:38;6.97;;;1.97;;
17592;SDS011;8915;51.760;14.300;2023-03-13T03:13:05;7.30;;;2.20;;
17592;SDS011;8915;51.760;14.300;2023-03-13T03:15:31;7.57;;;2.47;;
17592;SDS011;8915;51.760;14.300;2023-03-13T03:17:59;4.43;;;2.10;;
17592;SDS011;8915;51.760;14.300;2023-03-13T03:20:25;6.77;;;2.43;;
17592;SDS011;8915;51.760;14.300;2023-03-13T03:22:51;8.70;;;2.30;;
17592;SDS011;8915;51.760;14.300;2023-03-13T03:25:18;6.33;;;2.43;;
17592;SDS011;8915;51.760;14.300;2023-03-13T03:27:46;5.77;;;2.53;;
17592;SDS011;8915;51.760;14.300;2023-03-13T03:30:13;4.87;;;2.30;;
17592;SDS011;8915;51.760;14.300;2023-03-13T03:32:40;6.07;;;2.20;;
17592;SDS011;8915;51.760;14.300;2023-03-13T03:35:08;7.83;;;2.73;;
17592;SDS011;8915;51.760;14.300;2023-03-13T03:37:34;5.37;;;2.37;;
17592;SDS011;8915;51.760;14.300;2023-03-13T03:40:02;6.27;;;2.70;;
17592;SDS011;8915;51.760;14.300;2023-03-13T03:42:32;5.03;;;2.60;;
17592;SDS011;8915;51.760;14.300;2023-03-13T03:44:58;6.37;;;2.20;;
17592;SDS011;8915;51.760;14.300;2023-03-13T03:47:24;8.70;;;2.57;;
17592;SDS011;8915;51.760;14.300;2023-03-13T03:49:51;6.90;;;1.90;;
17592;SDS011;8915;51.760;14.300;2023-03-13T03:52:19;7.37;;;2.67;;
17592;SDS011;8915;51.760;14.300;2023-03-13T03:54:46;4.87;;;2.23;;
17592;SDS011;8915;51.760;14.300;2023-03-13T03:57:14;10.93;;;2.63;;
17592;SDS011;8915;51.760;14.300;2023-03-13T03:59:43;5.23;;;2.20;;
17592;SDS011;8915;51.760;14.300;2023-03-13T04:02:10;4.93;;;2.07;;
17592;SDS011;8915;51.760;14.300;2023-03-13T04:04:38;10.90;;;2.47;;
17592;SDS011;8915;51.760;14.300;2023-03-13T04:07:12;5.43;;;2.50;;
17592;SDS011;8915;51.760;14.300;2023-03-13T04:09:40;9.33;;;2.47;;
17592;SDS011;8915;51.760;14.300;2023-03-13T04:12:10;11.37;;;2.47;;
17592;SDS011;8915;51.760;14.300;2023-03-13T04:14:41;4.87;;;2.00;;
17592;SDS011;8915;51.760;14.300;2023-03-13T04:17:09;8.30;;;2.33;;
17592;SDS011;8915;51.760;14.300;2023-03-13T04:19:36;8.87;;;2.70;;
17592;SDS011;8915;51.760;14.300;2023-03-13T04:22:03;11.27;;;2.43;;
17592;SDS011;8915;51.760;14.300;2023-03-13T04:24:30;13.20;;;2.67;;
17592;SDS011;8915;51.760;14.300;2023-03-13T04:26:58;8.77;;;2.30;;
17592;SDS011;8915;51.760;14.300;2023-03-13T04:29:29;9.47;;;2.87;;
17592;SDS011;8915;51.760;14.300;2023-03-13T04:32:01;6.17;;;2.27;;
17592;SDS011;8915;51.760;14.300;2023-03-13T04:34:59;8.13;;;2.80;;
17592;SDS011;8915;51.760;14.300;2023-03-13T04:37:38;8.37;;;2.33;;
17592;SDS011;8915;51.760;14.300;2023-03-13T04:40:13;5.23;;;2.43;;
17592;SDS011;8915;51.760;14.300;2023-03-13T04:42:53;6.57;;;2.43;;
17592;SDS011;8915;51.760;14.300;2023-03-13T04:45:54;12.60;;;2.40;;
17592;SDS011;8915;51.760;14.300;2023-03-13T04:48:41;8.93;;;2.67;;
17592;SDS011;8915;51.760;14.300;2023-03-13T04:51:23;6.73;;;2.50;;
17592;SDS011;8915;51.760;14.300;2023-03-13T04:54:09;10.97;;;2.77;;
17592;SDS011;8915;51.760;14.300;2023-03-13T04:56:42;8.63;;;2.50;;
17592;SDS011;8915;51.760;14.300;2023-03-13T04:59:33;9.53;;;2.63;;
17592;SDS011;8915;51.760;14.300;2023-03-13T05:02:19;8.97;;;3.20;;
17592;SDS011;8915;51.760;14.300;2023-03-13T05:05:04;11.03;;;4.10;;
17592;SDS011;8915;51.760;14.300;2023-03-13T05:07:53;5.80;;;2.63;;
17592;SDS011;8915;51.760;14.300;2023-03-13T05:10:36;15.07;;;5.23;;
17592;SDS011;8915;51.760;14.300;2023-03-13T05:13:14;16.90;;;6.30;;
17592;SDS011;8915;51.760;14.300;2023-03-13T05:16:02;27.63;;;9.53;;
17592;SDS011;8915;51.760;14.300;2023-03-13T05:18:49;20.73;;;9.30;;
17592;SDS011;8915;51.760;14.300;2023-03-13T05:21:25;8.53;;;3.30;;
17592;SDS011;8915;51.760;14.300;2023-03-13T05:24:29;15.03;;;5.03;;
17592;SDS011;8915;51.760;14.300;2023-03-13T05:27:08;11.57;;;3.20;;
17592;SDS011;8915;51.760;14.300;2023-03-13T05:29:44;11.87;;;4.00;;
17592;SDS011;8915;51.760;14.300;2023-03-13T05:32:30;11.93;;;3.63;;
17592;SDS011;8915;51.760;14.300;2023-03-13T05:35:14;9.23;;;2.50;;
17592;SDS011;8915;51.760;14.300;2023-03-13T05:37:47;6.97;;;3.80;;
17592;SDS011;8915;51.760;14.300;2023-03-13T05:40:27;7.87;;;3.37;;
17592;SDS011;8915;51.760;14.300;2023-03-13T05:43:22;9.77;;;1.97;;
17592;SDS011;8915;51.760;14.300;2023-03-13T05:46:06;11.83;;;4.67;;
17592;SDS011;8915;51.760;14.300;2023-03-13T05:48:43;7.50;;;2.33;;
17592;SDS011;8915;51.760;14.300;2023-03-13T05:51:34;8.80;;;3.37;;
17592;SDS011;8915;51.760;14.300;2023-03-13T05:54:17;14.50;;;4.33;;
17592;SDS011;8915;51.760;14.300;2023-03-13T05:57:19;13.33;;;5.30;;
17592;SDS011;8915;51.760;14.300;2023-03-13T05:59:55;6.77;;;2.47;;
17592;SDS011;8915;51.760;14.300;2023-03-13T06:03:00;8.77;;;2.60;;
17592;SDS011;8915;51.760;14.300;2023-03-13T06:05:36;8.47;;;2.50;;
17592;SDS011;8915;51.760;14.300;2023-03-13T06:08:10;10.90;;;3.13;;
17592;SDS011;8915;51.760;14.300;2023-03-13T06:10:37;7.23;;;2.13;;
17592;SDS011;8915;51.760;14.300;2023-03-13T06:13:03;7.47;;;1.97;;
17592;SDS011;8915;51.760;14.300;2023-03-13T06:15:32;12.83;;;2.23;;
17592;SDS011;8915;51.760;14.300;2023-03-13T06:18:10;10.20;;;2.37;;
17592;SDS011;8915;51.760;14.300;2023-03-13T06:20:38;9.13;;;2.43;;
17592;SDS011;8915;51.760;14.300;2023-03-13T06:23:04;6.60;;;2.00;;
17592;SDS011;8915;51.760;14.300;2023-03-13T06:25:31;9.47;;;2.77;;
17592;SDS011;8915;51.760;14.300;2023-03-13T06:27:59;8.33;;;2.03;;
17592;SDS011;8915;51.760;14.300;2023-03-13T06:30:25;8.37;;;2.53;;
17592;SDS011;8915;51.760;14.300;2023-03-13T06:32:52;6.40;;;2.57;;
17592;SDS011;8915;51.760;14.300;2023-03-13T06:35:18;9.23;;;2.27;;
17592;SDS011;8915;51.760;14.300;2023-03-13T06:37:47;10.77;;;2.50;;
17592;SDS011;8915;51.760;14.300;2023-03-13T06:40:13;9.63;;;3.23;;
17592;SDS011;8915;51.760;14.300;2023-03-13T06:42:40;10.37;;;2.87;;
17592;SDS011;8915;51.760;14.300;2023-03-13T06:45:06;6.03;;;2.80;;
17592;SDS011;8915;51.760;14.300;2023-03-13T06:47:33;7.77;;;2.20;;
17592;SDS011;8915;51.760;14.300;2023-03-13T06:49:59;6.60;;;2.20;;
17592;SDS011;8915;51.760;14.300;2023-03-13T06:52:30;11.87;;;2.80;;
17592;SDS011;8915;51.760;14.300;2023-03-13T06:54:57;6.17;;;2.20;;
17592;SDS011;8915;51.760;14.300;2023-03-13T06:57:25;8.73;;;3.00;;
17592;SDS011;8915;51.760;14.300;2023-03-13T06:59:51;10.77;;;3.30;;
17592;SDS011;8915;51.760;14.300;2023-03-13T07:02:17;7.97;;;3.33;;
17592;SDS011;8915;51.760;14.300;2023-03-13T07:04:43;6.47;;;2.53;;
17592;SDS011;8915;51.760;14.300;2023-03-13T07:07:10;7.43;;;2.30;;
17592;SDS011;8915;51.760;14.300;2023-03-13T07:09:38;7.67;;;2.20;;
17592;SDS011;8915;51.760;14.300;2023-03-13T07:12:06;8.13;;;2.50;;
17592;SDS011;8915;51.760;14.300;2023-03-13T07:14:32;10.13;;;2.33;;
17592;SDS011;8915;51.760;14.300;2023-03-13T07:16:59;5.80;;;2.27;;
17592;SDS011;8915;51.760;14.300;2023-03-13T07:19:26;6.30;;;2.10;;
17592;SDS011;8915;51.760;14.300;2023-03-13T07:21:52;5.43;;;2.07;;
17592;SDS011;8915;51.760;14.300;2023-03-13T07:24:19;6.23;;;2.33;;
17592;SDS011;8915;51.760;14.300;2023-03-13T07:26:45;10.40;;;2.33;;
17592;SDS011;8915;51.760;14.300;2023-03-13T07:29:13;7.07;;;2.47;;
17592;SDS011;8915;51.760;14.300;2023-03-13T07:31:39;5.70;;;2.00;;
17592;SDS011;8915;51.760;14.300;2023-03-13T07:34:05;7.67;;;2.53;;
17592;SDS011;8915;51.760;14.300;2023-03-13T07:36:31;6.80;;;2.30;;
17592;SDS011;8915;51.760;14.300;2023-03-13T07:38:59;6.13;;;2.03;;
17592;SDS011;8915;51.760;14.300;2023-03-13T07:41:25;4.73;;;2.17;;
17592;SDS011;8915;51.760;14.300;2023-03-13T07:43:52;9.50;;;2.97;;
17592;SDS011;8915;51.760;14.300;2023-03-13T07:46:19;4.93;;;3.30;;
17592;SDS011;8915;51.760;14.300;2023-03-13T07:48:46;8.80;;;3.77;;
17592;SDS011;8915;51.760;14.300;2023-03-13T07:51:13;9.03;;;3.60;;
17592;SDS011;8915;51.760;14.300;2023-03-13T07:53:39;4.77;;;2.90;;
17592;SDS011;8915;51.760;14.300;2023-03-13T07:56:06;9.27;;;3.60;;
17592;SDS011;8915;51.760;14.300;2023-03-13T07:58:34;9.93;;;3.23;;
17592;SDS011;8915;51.760;14.300;2023-03-13T08:01:01;9.67;;;4.47;;
17592;SDS011;8915;51.760;14.300;2023-03-13T08:03:34;7.87;;;4.40;;
17592;SDS011;8915;51.760;14.300;2023-03-13T08:06:01;11.23;;;4.80;;
17592;SDS011;8915;51.760;14.300;2023-03-13T08:08:28;8.50;;;4.50;;
17592;SDS011;8915;51.760;14.300;2023-03-13T08:10:58;9.43;;;4.07;;
17592;SDS011;8915;51.760;14.300;2023-03-13T08:13:24;9.73;;;4.80;;
17592;SDS011;8915;51.760;14.300;2023-03-13T08:15:51;9.47;;;4.33;;
17592;SDS011;8915;51.760;14.300;2023-03-13T08:18:17;11.00;;;4.50;;
17592;SDS011;8915;51.760;14.300;2023-03-13T08:20:45;10.87;;;4.43;;
17592;SDS011;8915;51.760;14.300;2023-03-13T08:23:11;6.87;;;3.90;;
17592;SDS011;8915;51.760;14.300;2023-03-13T08:25:40;6.33;;;4.27;;
17592;SDS011;8915;51.760;14.300;2023-03-13T08:28:07;9.10;;;5.10;;
17592;SDS011;8915;51.760;14.300;2023-03-13T08:30:34;8.37;;;4.83;;
17592;SDS011;8915;51.760;14.300;2023-03-13T08:33:01;7.87;;;4.70;;
17592;SDS011;8915;51.760;14.300;2023-03-13T08:35:27;8.60;;;4.53;;
17592;SDS011;8915;51.760;14.300;2023-03-13T08:37:55;10.70;;;4.87;;
17592;SDS011;8915;51.760;14.300;2023-03-13T08:40:21;19.87;;;11.07;;
17592;SDS011;8915;51.760;14.300;2023-03-13T08:42:48;9.57;;;5.60;;
17592;SDS011;8915;51.760;14.300;2023-03-13T08:45:14;10.73;;;4.70;;
17592;SDS011;8915;51.760;14.300;2023-03-13T08:47:40;9.70;;;4.67;;
17592;SDS011;8915;51.760;14.300;2023-03-13T08:50:07;10.80;;;4.60;;
17592;SDS011;8915;51.760;14.300;2023-03-13T08:52:33;7.57;;;4.50;;
17592;SDS011;8915;51.760;14.300;2023-03-13T08:55:01;10.10;;;5.07;;
17592;SDS011;8915;51.760;14.300;2023-03-13T08:57:27;7.87;;;4.67;;
17592;SDS011;8915;51.760;14.300;2023-03-13T08:59:53;6.73;;;5.20;;
17592;SDS011;8915;51.760;14.300;2023-03-13T09:02:20;7.43;;;5.20;;
17592;SDS011;8915;51.760;14.300;2023-03-13T09:04:46;6.23;;;4.73;;
17592;SDS011;8915;51.760;14.300;2023-03-13T09:07:13;9.17;;;4.60;;
17592;SDS011;8915;51.760;14.300;2023-03-13T09:09:39;7.67;;;4.53;;
17592;SDS011;8915;51.760;14.300;2023-03-13T09:12:07;10.20;;;4.73;;
17592;SDS011;8915;51.760;14.300;2023-03-13T09:14:34;6.83;;;4.00;;
17592;SDS011;8915;51.760;14.300;2023-03-13T09:17:00;5.93;;;4.23;;
17592;SDS011;8915;51.760;14.300;2023-03-13T09:19:27;7.60;;;4.13;;
17592;SDS011;8915;51.760;14.300;2023-03-13T09:21:54;7.30;;;4.37;;
17592;SDS011;8915;51.760;14.300;2023-03-13T09:24:22;8.63;;;4.47;;
17592;SDS011;8915;51.760;14.300;2023-03-13T09:26:50;9.53;;;4.60;;
17592;SDS011;8915;51.760;14.300;2023-03-13T09:29:17;7.47;;;4.37;;
17592;SDS011;8915;51.760;14.300;2023-03-13T09:31:44;4.43;;;3.77;;
17592;SDS011;8915;51.760;14.300;2023-03-13T09:34:10;7.67;;;4.87;;
17592;SDS011;8915;51.760;14.300;2023-03-13T09:36:36;10.73;;;4.10;;
17592;SDS011;8915;51.760;14.300;2023-03-13T09:39:02;6.40;;;4.77;;
17592;SDS011;8915;51.760;14.300;2023-03-13T09:41:31;10.87;;;5.20;;
17592;SDS011;8915;51.760;14.300;2023-03-13T09:44:00;8.70;;;5.47;;
17592;SDS011;8915;51.760;14.300;2023-03-13T09:46:32;9.73;;;5.77;;
17592;SDS011;8915;51.760;14.300;2023-03-13T09:49:01;8.03;;;4.10;;
17592;SDS011;8915;51.760;14.300;2023-03-13T09:51:29;6.27;;;3.97;;
17592;SDS011;8915;51.760;14.300;2023-03-13T09:53:57;8.90;;;4.87;;
17592;SDS011;8915;51.760;14.300;2023-03-13T09:56:26;6.10;;;4.17;;
17592;SDS011;8915;51.760;14.300;2023-03-13T09:58:56;7.33;;;4.37;;
17592;SDS011;8915;51.760;14.300;2023-03-13T10:01:25;5.47;;;4.00;;
17592;SDS011;8915;51.760;14.300;2023-03-13T10:03:56;8.23;;;4.03;;
17592;SDS011;8915;51.760;14.300;2023-03-13T10:06:23;10.23;;;4.53;;
17592;SDS011;8915;51.760;14.300;2023-03-13T10:08:50;6.00;;;3.70;;
17592;SDS011;8915;51.760;14.300;2023-03-13T10:11:20;6.90;;;3.90;;
17592;SDS011;8915;51.760;14.300;2023-03-13T10:13:50;5.73;;;3.63;;
17592;SDS011;8915;51.760;14.300;2023-03-13T10:16:19;5.73;;;3.83;;
17592;SDS011;8915;51.760;14.300;2023-03-13T10:18:47;4.63;;;3.30;;
17592;SDS011;8915;51.760;14.300;2023-03-13T10:21:19;5.47;;;3.80;;
17592;SDS011;8915;51.760;14.300;2023-03-13T10:23:47;4.87;;;3.70;;
17592;SDS011;8915;51.760;14.300;2023-03-13T10:26:17;7.70;;;3.57;;
17592;SDS011;8915;51.760;14.300;2023-03-13T10:28:44;7.27;;;3.60;;
17592;SDS011;8915;51.760;14.300;2023-03-13T10:31:10;5.13;;;3.03;;
17592;SDS011;8915;51.760;14.300;2023-03-13T10:33:39;4.03;;;3.17;;
17592;SDS011;8915;51.760;14.300;2023-03-13T10:36:07;5.23;;;2.60;;
17592;SDS011;8915;51.760;14.300;2023-03-13T10:38:43;4.40;;;2.53;;
17592;SDS011;8915;51.760;14.300;2023-03-13T10:41:17;5.80;;;3.10;;
17592;SDS011;8915;51.760;14.300;2023-03-13T10:43:48;3.37;;;3.07;;
17592;SDS011;8915;51.760;14.300;2023-03-13T10:46:22;7.43;;;2.60;;
17592;SDS011;8915;51.760;14.300;2023-03-13T10:48:49;7.10;;;2.53;;
17592;SDS011;8915;51.760;14.300;2023-03-13T10:51:20;5.40;;;3.07;;
17592;SDS011;8915;51.760;14.300;2023-03-13T10:53:48;4.80;;;2.93;;
17592;SDS011;8915;51.760;14.300;2023-03-13T10:56:17;6.30;;;2.27;;
17592;SDS011;8915;51.760;14.300;2023-03-13T10:58:45;3.63;;;2.80;;
17592;SDS011;8915;51.760;14.300;2023-03-13T11:01:16;4.80;;;2.43;;
17592;SDS011;8915;51.760;14.300;2023-03-13T11:03:43;4.00;;;2.40;;
17592;SDS011;8915;51.760;14.300;2023-03-13T11:06:21;3.77;;;2.20;;
17592;SDS011;8915;51.760;14.300;2023-03-13T11:08:49;6.40;;;2.57;;
17592;SDS011;8915;51.760;14.300;2023-03-13T11:11:16;3.93;;;2.23;;
17592;SDS011;8915;51.760;14.300;2023-03-13T11:13:43;5.27;;;2.07;;
17592;SDS011;8915;51.760;14.300;2023-03-13T11:16:13;4.03;;;1.90;;
17592;SDS011;8915;51.760;14.300;2023-03-13T11:18:44;4.53;;;2.17;;
17592;SDS011;8915;51.760;14.300;2023-03-13T11:21:16;3.53;;;2.03;;
17592;SDS011;8915;51.760;14.300;2023-03-13T11:23:46;3.37;;;1.87;;
17592;SDS011;8915;51.760;14.300;2023-03-13T11:26:17;6.23;;;2.03;;
17592;SDS011;8915;51.760;14.300;2023-03-13T11:28:47;5.30;;;2.10;;
17592;SDS011;8915;51.760;14.300;2023-03-13T11:31:17;2.57;;;1.47;;
17592;SDS011;8915;51.760;14.300;2023-03-13T11:33:46;3.13;;;1.93;;
17592;SDS011;8915;51.760;14.300;2023-03-13T11:36:18;2.43;;;1.80;;
17592;SDS011;8915;51.760;14.300;2023-03-13T11:38:47;2.73;;;1.70;;
17592;SDS011;8915;51.760;14.300;2023-03-13T11:41:19;4.90;;;2.43;;
17592;SDS011;8915;51.760;14.300;2023-03-13T11:43:53;5.97;;;2.83;;
17592;SDS011;8915;51.760;14.300;2023-03-13T11:46:24;1.63;;;1.50;;
17592;SDS011;8915;51.760;14.300;2023-03-13T11:49:00;1.80;;;1.63;;
17592;SDS011;8915;51.760;14.300;2023-03-13T11:51:30;2.83;;;1.70;;
17592;SDS011;8915;51.760;14.300;2023-03-13T11:54:06;3.83;;;1.40;;
17592;SDS011;8915;51.760;14.300;2023-03-13T11:56:38;1.93;;;1.73;;
17592;SDS011;8915;51.760;14.300;2023-03-13T11:59:12;1.70;;;1.53;;
17592;SDS011;8915;51.760;14.300;2023-03-13T12:01:42;3.90;;;1.67;;
17592;SDS011;8915;51.760;14.300;2023-03-13T12:04:12;2.57;;;1.83;;
17592;SDS011;8915;51.760;14.300;2023-03-13T12:06:42;2.90;;;1.60;;
17592;SDS011;8915;51.760;14.300;2023-03-13T12:09:09;4.23;;;1.77;;
17592;SDS011;8915;51.760;14.300;2023-03-13T12:11:41;2.27;;;1.57;;
17592;SDS011;8915;51.760;14.300;2023-03-13T12:14:10;1.90;;;1.47;;
17592;SDS011;8915;51.760;14.300;2023-03-13T12:16:39;2.77;;;1.47;;
17592;SDS011;8915;51.760;14.300;2023-03-13T12:19:08;5.37;;;2.50;;
17592;SDS011;8915;51.760;14.300;2023-03-13T12:21:36;2.53;;;1.60;;
17592;SDS011;8915;51.760;14.300;2023-03-13T12:24:03;2.63;;;1.50;;
17592;SDS011;8915;51.760;14.300;2023-03-13T12:26:33;4.37;;;1.27;;
17592;SDS011;8915;51.760;14.300;2023-03-13T12:29:04;1.90;;;1.40;;
17592;SDS011;8915;51.760;14.300;2023-03-13T12:31:32;1.73;;;1.10;;
17592;SDS011;8915;51.760;14.300;2023-03-13T12:34:01;2.70;;;0.90;;
17592;SDS011;8915;51.760;14.300;2023-03-13T12:36:30;1.10;;;1.00;;
17592;SDS011;8915;51.760;14.300;2023-03-13T12:39:00;1.47;;;0.70;;
17592;SDS011;8915;51.760;14.300;2023-03-13T12:41:31;3.43;;;0.80;;
17592;SDS011;8915;51.760;14.300;2023-03-13T12:44:06;0.87;;;0.67;;
17592;SDS011;8915;51.760;14.300;2023-03-13T12:46:38;3.03;;;0.97;;
17592;SDS011;8915;51.760;14.300;2023-03-13T12:51:56;0.70;;;0.70;;
17592;SDS011;8915;51.760;14.300;2023-03-13T12:57:11;0.90;;;0.60;;
17592;SDS011;8915;51.760;14.300;2023-03-13T12:59:42;0.83;;;0.70;;
17592;SDS011;8915;51.760;14.300;2023-03-13T13:02:13;0.77;;;0.70;;
17592;SDS011;8915;51.760;14.300;2023-03-13T13:04:41;0.50;;;0.50;;
17592;SDS011;8915;51.760;14.300;2023-03-13T13:07:17;0.70;;;0.70;;
17592;SDS011;8915;51.760;14.300;2023-03-13T13:09:57;0.57;;;0.50;;
17592;SDS011;8915;51.760;14.300;2023-03-13T13:12:28;1.07;;;0.63;;
17592;SDS011;8915;51.760;14.300;2023-03-13T13:14:57;1.00;;;0.73;;
17592;SDS011;8915;51.760;14.300;2023-03-13T13:17:37;0.60;;;0.60;;
17592;SDS011;8915;51.760;14.300;2023-03-13T13:22:50;0.60;;;0.60;;
17592;SDS011;8915;51.760;14.300;2023-03-13T13:25:27;0.40;;;0.40;;
17592;SDS011;8915;51.760;14.300;2023-03-13T13:27:53;0.97;;;0.60;;
17592;SDS011;8915;51.760;14.300;2023-03-13T13:30:29;0.60;;;0.60;;
17592;SDS011;8915;51.760;14.300;2023-03-13T13:32:56;0.70;;;0.70;;
17592;SDS011;8915;51.760;14.300;2023-03-13T13:35:42;0.77;;;0.60;;
17592;SDS011;8915;51.760;14.300;2023-03-13T13:46:39;0.80;;;0.80;;
17592;SDS011;8915;51.760;14.300;2023-03-13T13:49:13;0.40;;;0.40;;
17592;SDS011;8915;51.760;14.300;2023-03-13T13:51:39;2.83;;;0.80;;
17592;SDS011;8915;51.760;14.300;2023-03-13T13:54:29;0.70;;;0.70;;
17592;SDS011;8915;51.760;14.300;2023-03-13T13:56:56;0.80;;;0.80;;
17592;SDS011;8915;51.760;14.300;2023-03-13T13:59:29;0.77;;;0.77;;
17592;SDS011;8915;51.760;14.300;2023-03-13T14:02:14;0.80;;;0.80;;
17592;SDS011;8915;51.760;14.300;2023-03-13T14:04:41;1.60;;;0.73;;
17592;SDS011;8915;51.760;14.300;2023-03-13T14:07:09;1.87;;;0.90;;
17592;SDS011;8915;51.760;14.300;2023-03-13T14:09:39;1.27;;;0.80;;
17592;SDS011;8915;51.760;14.300;2023-03-13T14:12:23;1.57;;;0.80;;
17592;SDS011;8915;51.760;14.300;2023-03-13T14:15:02;0.60;;;0.60;;
17592;SDS011;8915;51.760;14.300;2023-03-13T14:17:32;0.63;;;0.53;;
17592;SDS011;8915;51.760;14.300;2023-03-13T14:20:03;0.50;;;0.50;;
17592;SDS011;8915;51.760;14.300;2023-03-13T14:22:43;2.33;;;0.60;;
17592;SDS011;8915;51.760;14.300;2023-03-13T14:25:09;0.53;;;0.50;;
17592;SDS011;8915;51.760;14.300;2023-03-13T14:27:41;0.60;;;0.60;;
17592;SDS011;8915;51.760;14.300;2023-03-13T14:30:08;0.60;;;0.60;;
17592;SDS011;8915;51.760;14.300;2023-03-13T14:32:35;0.70;;;0.60;;
17592;SDS011;8915;51.760;14.300;2023-03-13T14:35:02;0.53;;;0.50;;
17592;SDS011;8915;51.760;14.300;2023-03-13T14:37:33;0.60;;;0.60;;
17592;SDS011;8915;51.760;14.300;2023-03-13T14:40:04;0.80;;;0.60;;
17592;SDS011;8915;51.760;14.300;2023-03-13T14:42:35;0.60;;;0.60;;
17592;SDS011;8915;51.760;14.300;2023-03-13T14:45:10;0.67;;;0.67;;
17592;SDS011;8915;51.760;14.300;2023-03-13T14:47:38;0.80;;;0.70;;
17592;SDS011;8915;51.760;14.300;2023-03-13T14:50:08;1.30;;;0.70;;
17592;SDS011;8915;51.760;14.300;2023-03-13T14:52:35;0.70;;;0.70;;
17592;SDS011;8915;51.760;14.300;2023-03-13T14:55:05;1.27;;;0.70;;
17592;SDS011;8915;51.760;14.300;2023-03-13T14:57:33;0.70;;;0.60;;
17592;SDS011;8915;51.760;14.300;2023-03-13T15:02:47;1.73;;;0.87;;
17592;SDS011;8915;51.760;14.300;2023-03-13T15:05:28;0.67;;;0.67;;
17592;SDS011;8915;51.760;14.300;2023-03-13T15:07:55;1.00;;;0.90;;
17592;SDS011;8915;51.760;14.300;2023-03-13T15:10:22;0.67;;;0.67;;
17592;SDS011;8915;51.760;14.300;2023-03-13T15:12:49;0.97;;;0.87;;
17592;SDS011;8915;51.760;14.300;2023-03-13T15:15:15;1.20;;;0.90;;
17592;SDS011;8915;51.760;14.300;2023-03-13T15:17:42;1.67;;;1.00;;
17592;SDS011;8915;51.760;14.300;2023-03-13T15:20:11;0.80;;;0.80;;
17592;SDS011;8915;51.760;14.300;2023-03-13T15:22:38;3.23;;;0.90;;